Time;durP1;ratioP1;P1;durP2;ratioP2;P2;SDS_P1;SDS_P2;PMS_P1;PMS_P2;Temp;Humidity;BMP_temperature;BMP_pressure;BME280_temperature;BME280_humidity;BME280_pressure;Samples;Min_cycle;Max_cycle;Signal;HPM_P1;HPM_P2
2024/01/12 00:02:31;;;;;;;0.00;0.00;;;4.50;65.40;;;;;;5086249;28;20219;-26
2024/01/12 00:05:00;;;;;;;0.00;0.00;;;4.50;65.40;;;;;;5086944;28;20599;-26
2024/01/12 00:07:27;;;;;;;0.00;0.00;;;4.60;65.40;;;;;;5079101;28;20231;-26
2024/01/12 00:09:57;;;;;;;0.00;0.00;;;4.50;65.40;;;;;;5074393;28;20199;-26
2024/01/12 00:12:24;;;;;;;0.00;0.00;;;4.60;65.50;;;;;;5082509;28;20202;-26
2024/01/12 00:14:51;;;;;;;0.00;0.00;;;4.60;65.50;;;;;;5074904;28;20922;-26
2024/01/12 00:17:22;;;;;;;0.00;0.00;;;4.60;65.50;;;;;;5073496;28;20265;-26
2024/01/12 00:19:52;;;;;;;0.00;0.00;;;4.60;65.60;;;;;;5074157;28;20219;-26
2024/01/12 00:22:19;;;;;;;0.00;0.00;;;4.60;65.50;;;;;;5082712;28;20227;-26
2024/01/12 00:24:47;;;;;;;0.00;0.00;;;4.60;65.60;;;;;;5082125;28;20297;-26
2024/01/12 00:27:14;;;;;;;0.00;0.00;;;4.60;65.60;;;;;;5065680;28;20225;-26
2024/01/12 00:29:41;;;;;;;0.00;0.00;;;4.60;65.60;;;;;;5081680;28;20199;-26
2024/01/12 00:32:09;;;;;;;0.00;0.00;;;4.60;65.60;;;;;;5078177;28;20203;-26
2024/01/12 00:34:39;;;;;;;0.00;0.00;;;4.60;65.60;;;;;;5084232;28;20210;-26
2024/01/12 00:37:06;;;;;;;0.00;0.00;;;4.60;65.60;;;;;;5075968;28;20272;-26
2024/01/12 00:39:35;;;;;;;0.00;0.00;;;4.60;65.60;;;;;;5081124;28;20218;-26
2024/01/12 00:42:04;;;;;;;0.00;0.00;;;4.60;65.60;;;;;;5086937;28;20254;-26
2024/01/12 00:44:33;;;;;;;0.00;0.00;;;4.60;65.60;;;;;;5080082;28;20198;-33
2024/01/12 00:47:00;;;;;;;0.00;0.00;;;4.60;65.60;;;;;;5085234;28;20199;-33
2024/01/12 00:49:30;;;;;;;0.00;0.00;;;4.60;65.60;;;;;;5086683;28;20707;-33
2024/01/12 00:52:00;;;;;;;0.00;0.00;;;4.60;65.70;;;;;;5082443;28;20218;-35
2024/01/12 00:54:27;;;;;;;0.00;0.00;;;4.60;65.60;;;;;;5078144;28;20202;-34
2024/01/12 00:56:54;;;;;;;0.00;0.00;;;4.60;65.70;;;;;;5088202;28;20207;-35
2024/01/12 00:59:22;;;;;;;0.00;0.00;;;4.60;65.70;;;;;;5091128;28;20205;-36
2024/01/12 01:01:57;;;;;;;0.00;0.00;;;4.60;65.70;;;;;;5082855;28;20227;-35
2024/01/12 01:04:27;;;;;;;0.00;0.00;;;4.60;65.70;;;;;;5089750;28;20206;-35
2024/01/12 01:06:56;;;;;;;0.00;0.00;;;4.60;65.70;;;;;;5091194;28;20585;-35
2024/01/12 01:09:23;;;;;;;0.00;0.00;;;4.60;65.70;;;;;;5086598;28;20673;-35
2024/01/12 01:11:52;;;;;;;0.00;0.00;;;4.60;65.70;;;;;;5079912;28;20593;-35
2024/01/12 01:14:24;;;;;;;0.00;0.00;;;4.60;65.70;;;;;;5086355;28;20217;-34
2024/01/12 01:16:53;;;;;;;0.00;0.00;;;4.60;65.70;;;;;;5084067;28;20223;-34
2024/01/12 01:19:23;;;;;;;0.00;0.00;;;4.60;65.70;;;;;;5084868;28;20198;-34
2024/01/12 01:21:50;;;;;;;0.00;0.00;;;4.70;65.80;;;;;;5080700;28;20609;-34
2024/01/12 01:24:18;;;;;;;0.00;0.00;;;4.70;65.80;;;;;;5085036;28;20226;-34
2024/01/12 01:26:45;;;;;;;0.00;0.00;;;4.70;65.80;;;;;;5080708;28;20191;-34
2024/01/12 01:29:12;;;;;;;0.00;0.00;;;4.70;65.90;;;;;;5085491;28;20218;-35
2024/01/12 01:31:39;;;;;;;0.00;0.00;;;4.70;65.80;;;;;;5084427;28;20187;-34
2024/01/12 01:34:07;;;;;;;0.00;0.00;;;4.70;65.90;;;;;;5079832;28;20207;-35
2024/01/12 01:36:34;;;;;;;0.00;0.00;;;4.70;65.90;;;;;;5085467;28;20217;-35
2024/01/12 01:39:01;;;;;;;0.00;0.00;;;4.70;65.90;;;;;;5083365;28;20203;-34
2024/01/12 01:41:29;;;;;;;0.00;0.00;;;4.70;65.90;;;;;;5078740;28;20573;-35
2024/01/12 01:43:58;;;;;;;0.00;0.00;;;4.70;65.90;;;;;;5079030;28;20282;-35
2024/01/12 01:46:28;;;;;;;0.00;0.00;;;4.70;65.90;;;;;;5083152;28;20215;-34
2024/01/12 01:48:56;;;;;;;0.00;0.00;;;4.70;65.90;;;;;;5078044;28;20607;-36
2024/01/12 01:51:24;;;;;;;0.00;0.00;;;4.70;65.90;;;;;;5080590;28;20674;-35
2024/01/12 01:53:52;;;;;;;0.00;0.00;;;4.70;65.90;;;;;;5080300;28;20202;-35
2024/01/12 01:56:20;;;;;;;0.00;0.00;;;4.70;66.00;;;;;;5087227;28;20264;-35
2024/01/12 01:58:47;;;;;;;0.00;0.00;;;4.70;66.00;;;;;;5080764;28;20465;-34
2024/01/12 02:01:17;;;;;;;0.00;0.00;;;4.70;66.00;;;;;;5052945;28;20218;-34
2024/01/12 02:03:46;;;;;;;0.00;0.00;;;4.70;66.00;;;;;;5074116;28;20235;-34
2024/01/12 02:06:18;;;;;;;0.00;0.00;;;4.70;66.00;;;;;;5072903;28;20236;-35
2024/01/12 02:08:49;;;;;;;0.00;0.00;;;4.70;66.00;;;;;;5078254;28;20203;-35
2024/01/12 02:11:16;;;;;;;0.00;0.00;;;4.80;66.00;;;;;;5074102;28;20191;-34
2024/01/12 02:13:44;;;;;;;0.00;0.00;;;4.80;66.00;;;;;;5077551;28;20624;-34
2024/01/12 02:16:14;;;;;;;0.00;0.00;;;4.80;66.00;;;;;;5073457;28;20202;-33
2024/01/12 02:18:41;;;;;;;0.00;0.00;;;4.70;65.90;;;;;;5072278;28;20206;-35
2024/01/12 02:21:08;;;;;;;0.00;0.00;;;4.70;66.00;;;;;;5053778;28;20311;-34
2024/01/12 02:23:38;;;;;;;0.00;0.00;;;4.70;66.00;;;;;;5062623;28;20700;-33
2024/01/12 02:26:06;;;;;;;0.00;0.00;;;4.70;66.00;;;;;;5079550;28;20206;-34
2024/01/12 02:28:34;;;;;;;0.00;0.00;;;4.70;66.10;;;;;;5080925;28;20284;-34
2024/01/12 02:31:04;;;;;;;0.00;0.00;;;4.70;66.10;;;;;;5085138;28;20211;-35
2024/01/12 02:33:33;;;;;;;0.00;0.00;;;4.70;66.10;;;;;;5084878;28;20210;-34
2024/01/12 02:36:01;;;;;;;0.00;0.00;;;4.70;66.10;;;;;;5076959;28;20219;-34
2024/01/12 02:38:30;;;;;;;0.00;0.00;;;4.70;66.10;;;;;;5081058;28;20572;-35
2024/01/12 02:40:57;;;;;;;0.00;0.00;;;4.70;66.10;;;;;;5079968;28;20241;-35
2024/01/12 02:43:24;;;;;;;0.00;0.00;;;4.70;66.20;;;;;;5080699;28;20310;-33
2024/01/12 02:45:51;;;;;;;0.00;0.00;;;4.70;66.20;;;;;;5085924;28;20289;-35
2024/01/12 02:48:21;;;;;;;0.00;0.00;;;4.70;66.20;;;;;;5084997;28;20222;-37
2024/01/12 02:50:48;;;;;;;0.00;0.00;;;4.70;66.20;;;;;;5084095;28;20210;-34
2024/01/12 02:53:18;;;;;;;0.00;0.00;;;4.70;66.10;;;;;;5084522;28;20211;-34
2024/01/12 02:55:48;;;;;;;0.00;0.00;;;4.70;66.10;;;;;;5088299;28;20756;-35
2024/01/12 02:58:20;;;;;;;0.00;0.00;;;4.70;66.20;;;;;;5086902;28;20293;-35
2024/01/12 03:00:47;;;;;;;0.00;0.00;;;4.70;66.20;;;;;;5083255;28;20202;-34
2024/01/12 03:03:21;;;;;;;0.00;0.00;;;4.70;66.20;;;;;;5078487;28;20225;-35
2024/01/12 03:05:49;;;;;;;0.00;0.00;;;4.70;66.30;;;;;;5066320;28;20239;-34
2024/01/12 03:08:19;;;;;;;0.00;0.00;;;4.70;66.30;;;;;;5083290;28;20298;-34
2024/01/12 03:10:46;;;;;;;0.00;0.00;;;4.70;66.30;;;;;;5082259;28;20203;-34
2024/01/12 03:13:13;;;;;;;0.00;0.00;;;4.70;66.40;;;;;;5085309;28;20218;-34
2024/01/12 03:15:43;;;;;;;0.00;0.00;;;4.70;66.40;;;;;;5093698;28;20253;-33
2024/01/12 03:18:12;;;;;;;0.00;0.00;;;4.70;66.40;;;;;;5081667;28;20932;-34
2024/01/12 03:20:39;;;;;;;0.00;0.00;;;4.70;66.50;;;;;;5083388;28;20293;-33
2024/01/12 03:23:09;;;;;;;0.00;0.00;;;4.70;66.40;;;;;;5082673;28;20218;-33
2024/01/12 03:25:39;;;;;;;0.00;0.00;;;4.80;66.50;;;;;;5072062;28;20212;-32
2024/01/12 03:28:08;;;;;;;0.00;0.00;;;4.80;66.50;;;;;;5085495;28;20194;-33
2024/01/12 03:30:38;;;;;;;0.00;0.00;;;4.80;66.50;;;;;;5082885;28;20474;-34
2024/01/12 03:33:08;;;;;;;0.00;0.00;;;4.80;66.40;;;;;;5081943;28;20570;-32
2024/01/12 03:35:38;;;;;;;0.00;0.00;;;4.70;66.40;;;;;;5074849;28;21105;-32
2024/01/12 03:38:12;;;;;;;0.00;0.00;;;4.80;66.40;;;;;;5084870;28;20683;-33
2024/01/12 03:40:43;;;;;;;0.00;0.00;;;4.80;66.50;;;;;;5085011;28;20206;-34
2024/01/12 03:43:12;;;;;;;0.00;0.00;;;4.70;66.50;;;;;;5086861;28;20227;-33
2024/01/12 03:45:40;;;;;;;0.00;0.00;;;4.80;66.50;;;;;;5084052;28;20605;-34
2024/01/12 03:48:09;;;;;;;0.00;0.00;;;4.70;66.40;;;;;;5079633;28;20677;-33
2024/01/12 03:50:37;;;;;;;0.00;0.00;;;4.70;66.40;;;;;;5075994;28;20248;-32
2024/01/12 03:53:07;;;;;;;0.00;0.00;;;4.70;66.40;;;;;;5087180;28;20207;-33
2024/01/12 03:55:34;;;;;;;0.00;0.00;;;4.70;66.50;;;;;;5085915;28;20582;-34
2024/01/12 03:58:02;;;;;;;0.00;0.00;;;4.70;66.60;;;;;;5082295;28;20226;-32
2024/01/12 04:00:31;;;;;;;0.00;0.00;;;4.70;66.60;;;;;;5083366;28;20199;-33
2024/01/12 04:03:01;;;;;;;0.00;0.00;;;4.70;66.60;;;;;;5082906;28;20218;-34
2024/01/12 04:05:28;;;;;;;0.00;0.00;;;4.70;66.50;;;;;;5082590;28;20207;-33
2024/01/12 04:07:58;;;;;;;0.00;0.00;;;4.70;66.50;;;;;;5075027;28;20216;-33
2024/01/12 04:10:27;;;;;;;0.00;0.00;;;4.70;66.50;;;;;;5083009;28;20965;-34
2024/01/12 04:12:55;;;;;;;0.00;0.00;;;4.70;66.60;;;;;;5062552;28;20268;-34
2024/01/12 04:15:24;;;;;;;0.00;0.00;;;4.70;66.60;;;;;;5077672;28;20618;-34
2024/01/12 04:17:54;;;;;;;0.00;0.00;;;4.70;66.70;;;;;;5084584;28;20210;-34
2024/01/12 04:20:23;;;;;;;0.00;0.00;;;4.70;66.60;;;;;;5090614;28;20206;-33
2024/01/12 04:22:53;;;;;;;0.00;0.00;;;4.70;66.70;;;;;;5081139;28;20234;-32
2024/01/12 04:25:20;;;;;;;0.00;0.00;;;4.70;66.70;;;;;;5086976;28;20199;-32
2024/01/12 04:27:47;;;;;;;0.00;0.00;;;4.70;66.70;;;;;;5080261;28;20199;-32
2024/01/12 04:30:17;;;;;;;0.00;0.00;;;4.70;66.60;;;;;;5073378;28;20199;-33
2024/01/12 04:32:46;;;;;;;0.00;0.00;;;4.70;66.50;;;;;;5087060;28;20696;-33
2024/01/12 04:35:14;;;;;;;0.00;0.00;;;4.70;66.60;;;;;;5079880;28;20210;-32
2024/01/12 04:37:41;;;;;;;0.00;0.00;;;4.60;66.50;;;;;;5086486;28;20210;-34
2024/01/12 04:40:10;;;;;;;0.00;0.00;;;4.60;66.60;;;;;;5086545;28;20216;-34
2024/01/12 04:42:39;;;;;;;0.00;0.00;;;4.60;66.60;;;;;;5074173;28;20226;-35
2024/01/12 04:45:09;;;;;;;0.00;0.00;;;4.60;66.70;;;;;;5086804;28;20195;-35
2024/01/12 04:47:36;;;;;;;0.00;0.00;;;4.60;66.70;;;;;;5082304;28;20219;-34
2024/01/12 04:50:07;;;;;;;0.00;0.00;;;4.60;66.60;;;;;;5086961;28;20241;-33
2024/01/12 04:52:34;;;;;;;0.00;0.00;;;4.60;66.70;;;;;;5083364;28;20203;-32
2024/01/12 04:55:01;;;;;;;0.00;0.00;;;4.60;66.90;;;;;;5085703;28;20447;-33
2024/01/12 04:57:29;;;;;;;0.00;0.00;;;4.60;66.90;;;;;;5081944;28;20202;-32
2024/01/12 04:59:56;;;;;;;0.00;0.00;;;4.60;66.90;;;;;;5087672;28;20594;-33
2024/01/12 05:02:23;;;;;;;0.00;0.00;;;4.60;67.00;;;;;;5085736;28;20214;-33
2024/01/12 05:04:51;;;;;;;0.00;0.00;;;4.60;66.90;;;;;;5079071;28;20950;-32
2024/01/12 05:07:20;;;;;;;0.00;0.00;;;4.60;67.00;;;;;;5081199;28;20234;-33
2024/01/12 05:09:47;;;;;;;0.00;0.00;;;4.70;67.10;;;;;;5075379;28;20219;-32
2024/01/12 05:12:15;;;;;;;0.00;0.00;;;4.70;67.10;;;;;;5088389;28;20283;-34
2024/01/12 05:14:42;;;;;;;0.00;0.00;;;4.70;67.00;;;;;;5084722;28;20553;-34
2024/01/12 05:17:13;;;;;;;0.00;0.00;;;4.70;67.10;;;;;;5080764;28;20575;-34
2024/01/12 05:19:40;;;;;;;0.00;0.00;;;4.70;67.10;;;;;;5089727;28;20234;-36
2024/01/12 05:22:10;;;;;;;0.00;0.00;;;4.70;67.10;;;;;;5081044;28;20306;-34
2024/01/12 05:24:40;;;;;;;0.00;0.00;;;4.70;67.10;;;;;;5086415;28;20212;-34
2024/01/12 05:27:07;;;;;;;0.00;0.00;;;4.70;67.10;;;;;;5082101;28;20385;-33
2024/01/12 05:29:35;;;;;;;0.00;0.00;;;4.70;67.10;;;;;;5083287;28;20293;-34
2024/01/12 05:32:02;;;;;;;0.00;0.00;;;4.70;67.00;;;;;;5064301;28;20725;-33
2024/01/12 05:34:32;;;;;;;0.00;0.00;;;4.70;67.10;;;;;;5085415;28;20261;-33
2024/01/12 05:36:59;;;;;;;0.00;0.00;;;4.70;67.10;;;;;;5084113;28;21128;-33
2024/01/12 05:39:29;;;;;;;0.00;0.00;;;4.70;67.10;;;;;;5075955;28;20215;-33
2024/01/12 05:41:58;;;;;;;0.00;0.00;;;4.70;67.00;;;;;;5076469;28;20466;-33
2024/01/12 05:44:28;;;;;;;0.00;0.00;;;4.70;66.90;;;;;;5086985;28;20235;-34
2024/01/12 05:46:57;;;;;;;0.00;0.00;;;4.70;66.90;;;;;;5081801;28;20285;-33
2024/01/12 05:49:24;;;;;;;0.00;0.00;;;4.70;66.90;;;;;;5084346;28;20567;-34
2024/01/12 05:51:52;;;;;;;0.00;0.00;;;4.70;66.90;;;;;;5084149;28;20311;-34
2024/01/12 05:54:19;;;;;;;0.00;0.00;;;4.70;66.90;;;;;;5075562;28;20207;-34
2024/01/12 05:56:48;;;;;;;0.00;0.00;;;4.70;67.70;;;;;;5084107;28;20202;-35
2024/01/12 05:59:20;;;;;;;0.00;0.00;;;4.70;66.80;;;;;;5073878;28;20270;-34
2024/01/12 06:01:49;;;;;;;0.00;0.00;;;4.60;66.70;;;;;;5075980;28;20203;-34
2024/01/12 06:04:21;;;;;;;0.00;0.00;;;4.60;66.70;;;;;;5077324;28;20233;-36
2024/01/12 06:06:49;;;;;;;0.00;0.00;;;4.60;66.90;;;;;;5081534;28;20321;-35
2024/01/12 06:09:21;;;;;;;0.00;0.00;;;4.50;66.90;;;;;;5082927;28;20223;-35
2024/01/12 06:11:48;;;;;;;0.00;0.00;;;4.50;67.00;;;;;;5084631;28;20194;-35
2024/01/12 06:14:18;;;;;;;0.00;0.00;;;4.50;66.90;;;;;;5081488;28;20206;-27
2024/01/12 06:16:48;;;;;;;0.00;0.00;;;4.50;67.00;;;;;;5078960;28;20221;-27
2024/01/12 06:19:17;;;;;;;0.00;0.00;;;4.50;67.10;;;;;;5080410;28;20224;-27
2024/01/12 06:21:47;;;;;;;0.00;0.00;;;4.50;67.20;;;;;;5089890;28;20207;-27
2024/01/12 06:24:16;;;;;;;0.00;0.00;;;4.50;67.30;;;;;;5082410;28;20318;-27
2024/01/12 06:26:43;;;;;;;0.00;0.00;;;4.50;67.40;;;;;;5075372;28;20211;-27
2024/01/12 06:29:11;;;;;;;0.00;0.00;;;4.50;67.40;;;;;;5082285;28;20207;-27
2024/01/12 06:31:38;;;;;;;0.00;0.00;;;4.60;67.40;;;;;;5079393;28;20211;-35
2024/01/12 06:34:08;;;;;;;0.00;0.00;;;4.60;67.40;;;;;;5070658;28;20257;-33
2024/01/12 06:36:44;;;;;;;0.00;0.00;;;4.60;67.40;;;;;;5081879;28;20256;-34
2024/01/12 06:39:11;;;;;;;0.00;0.00;;;4.60;67.40;;;;;;5075892;28;20225;-34
2024/01/12 06:41:47;;;;;;;0.00;0.00;;;4.60;67.30;;;;;;5072513;28;20275;-34
2024/01/12 06:44:19;;;;;;;0.00;0.00;;;4.60;67.30;;;;;;5082543;28;20331;-33
2024/01/12 06:46:53;;;;;;;0.00;0.00;;;4.60;67.30;;;;;;5080333;28;20199;-35
2024/01/12 06:49:21;;;;;;;0.00;0.00;;;4.60;67.20;;;;;;5058698;28;20203;-36
2024/01/12 06:51:48;;;;;;;0.00;0.00;;;4.60;67.20;;;;;;5075326;28;20233;-35
2024/01/12 06:54:17;;;;;;;0.00;0.00;;;4.50;67.30;;;;;;5081018;28;20702;-35
2024/01/12 06:56:52;;;;;;;0.00;0.00;;;4.50;67.20;;;;;;5048597;28;20252;-35
2024/01/12 06:59:22;;;;;;;0.00;0.00;;;4.50;67.30;;;;;;5071645;28;20237;-35
2024/01/12 07:01:51;;;;;;;0.00;0.00;;;4.50;67.30;;;;;;5082430;28;20202;-36
2024/01/12 07:04:19;;;;;;;0.00;0.00;;;4.50;67.30;;;;;;5059744;28;20234;-35
2024/01/12 07:06:51;;;;;;;0.00;0.00;;;4.50;67.30;;;;;;5082392;28;20236;-37
2024/01/12 07:09:22;;;;;;;0.00;0.00;;;4.50;67.30;;;;;;5073519;28;20222;-36
2024/01/12 07:11:49;;;;;;;0.00;0.00;;;4.50;67.30;;;;;;5063861;28;20680;-27
2024/01/12 07:14:17;;;;;;;0.00;0.00;;;4.50;67.40;;;;;;5074086;28;20234;-27
2024/01/12 07:16:44;;;;;;;0.00;0.00;;;4.50;67.30;;;;;;5071170;28;20264;-28
2024/01/12 07:19:11;;;;;;;0.00;0.00;;;4.50;67.40;;;;;;5082790;28;20206;-27
2024/01/12 07:21:41;;;;;;;0.00;0.00;;;4.50;67.50;;;;;;5083520;28;20237;-27
2024/01/12 07:24:08;;;;;;;0.00;0.00;;;4.50;67.40;;;;;;5080789;28;20783;-27
2024/01/12 07:26:36;;;;;;;0.00;0.00;;;4.60;67.50;;;;;;5078203;28;20201;-27
2024/01/12 07:29:08;;;;;;;0.00;0.00;;;4.60;67.40;;;;;;5081342;28;20210;-27
2024/01/12 07:31:36;;;;;;;0.00;0.00;;;4.60;67.40;;;;;;5076859;28;20604;-27
2024/01/12 07:34:06;;;;;;;0.00;0.00;;;4.60;67.50;;;;;;5067389;28;20206;-27
2024/01/12 07:36:33;;;;;;;0.00;0.00;;;4.60;67.60;;;;;;5083475;28;20252;-27
2024/01/12 07:39:00;;;;;;;0.00;0.00;;;4.60;67.60;;;;;;5081431;28;20666;-27
2024/01/12 07:41:28;;;;;;;0.00;0.00;;;4.60;67.60;;;;;;5077561;28;20207;-27
2024/01/12 07:43:58;;;;;;;0.00;0.00;;;4.60;67.60;;;;;;5079236;28;20222;-27
2024/01/12 07:46:28;;;;;;;0.00;0.00;;;4.60;67.50;;;;;;5083725;28;20298;-27
2024/01/12 07:48:57;;;;;;;0.00;0.00;;;4.60;67.50;;;;;;5080696;28;20195;-27
2024/01/12 07:51:29;;;;;;;0.00;0.00;;;4.60;67.50;;;;;;5079731;28;20416;-27
2024/01/12 07:53:56;;;;;;;0.00;0.00;;;4.60;67.50;;;;;;5076462;28;20625;-27
2024/01/12 07:56:24;;;;;;;0.00;0.00;;;4.60;67.60;;;;;;5086069;28;20207;-27
2024/01/12 07:58:51;;;;;;;0.00;0.00;;;4.60;67.60;;;;;;5080242;28;20224;-27
2024/01/12 08:01:23;;;;;;;0.00;0.00;;;4.60;67.70;;;;;;5062825;28;20263;-27
2024/01/12 08:03:55;;;;;;;0.00;0.00;;;4.60;67.60;;;;;;5086829;28;20770;-27
2024/01/12 08:06:24;;;;;;;0.00;0.00;;;4.60;67.60;;;;;;5083466;28;20249;-27
2024/01/12 08:08:54;;;;;;;0.00;0.00;;;4.60;67.60;;;;;;5080968;28;20210;-27
2024/01/12 08:11:21;;;;;;;0.00;0.00;;;4.60;67.60;;;;;;5085293;28;20265;-28
2024/01/12 08:14:01;;;;;;;0.00;0.00;;;4.60;67.70;;;;;;5079832;28;20713;-27
2024/01/12 08:16:30;;;;;;;0.00;0.00;;;4.60;67.80;;;;;;5085823;28;20199;-27
2024/01/12 08:19:04;;;;;;;0.00;0.00;;;4.60;67.80;;;;;;5084034;28;20195;-27
2024/01/12 08:21:37;;;;;;;0.00;0.00;;;4.60;67.80;;;;;;5085280;28;20618;-27
2024/01/12 08:24:20;;;;;;;0.00;0.00;;;4.60;67.80;;;;;;5080139;28;20280;-27
2024/01/12 08:26:49;;;;;;;0.00;0.00;;;4.60;67.80;;;;;;5083261;28;20203;-27
2024/01/12 08:29:17;;;;;;;0.00;0.00;;;4.60;67.80;;;;;;5074040;28;20674;-27
2024/01/12 08:31:51;;;;;;;0.00;0.00;;;4.60;67.70;;;;;;5080333;28;20248;-27
2024/01/12 08:34:18;;;;;;;0.00;0.00;;;4.70;67.70;;;;;;5083817;28;20213;-27
2024/01/12 08:36:46;;;;;;;0.00;0.00;;;4.60;67.80;;;;;;5068460;28;20292;-27
2024/01/12 08:39:14;;;;;;;0.00;0.00;;;4.70;67.90;;;;;;5080385;28;20211;-27
2024/01/12 08:41:41;;;;;;;0.00;0.00;;;4.70;68.00;;;;;;5083302;28;20288;-27
2024/01/12 08:44:09;;;;;;;0.00;0.00;;;4.70;68.00;;;;;;5081523;28;20219;-27
2024/01/12 08:46:38;;;;;;;0.00;0.00;;;4.70;68.00;;;;;;5082616;28;20218;-27
2024/01/12 08:49:07;;;;;;;0.00;0.00;;;4.70;68.00;;;;;;5073599;28;20204;-27
2024/01/12 08:51:35;;;;;;;0.00;0.00;;;4.80;68.00;;;;;;5077781;28;20198;-26
2024/01/12 08:54:05;;;;;;;0.00;0.00;;;4.80;68.00;;;;;;5079482;28;20207;-26
2024/01/12 08:56:33;;;;;;;0.00;0.00;;;4.80;67.90;;;;;;5080277;28;20219;-26
2024/01/12 08:59:03;;;;;;;0.00;0.00;;;4.80;67.90;;;;;;5084827;28;20284;-27
2024/01/12 09:01:30;;;;;;;0.00;0.00;;;4.80;67.90;;;;;;5083119;28;20226;-26
2024/01/12 09:03:59;;;;;;;0.00;0.00;;;4.80;67.80;;;;;;5065496;28;20208;-26
2024/01/12 09:06:29;;;;;;;0.00;0.00;;;4.80;67.80;;;;;;5082872;28;20693;-26
2024/01/12 09:08:58;;;;;;;0.00;0.00;;;4.80;67.90;;;;;;5084494;28;20203;-26
2024/01/12 09:11:31;;;;;;;0.00;0.00;;;4.80;67.90;;;;;;5081185;28;20673;-27
2024/01/12 09:13:59;;;;;;;0.00;0.00;;;4.80;68.00;;;;;;5084518;28;20215;-27
2024/01/12 09:16:26;;;;;;;0.00;0.00;;;4.80;68.00;;;;;;5082748;28;20211;-27
2024/01/12 09:18:53;;;;;;;0.00;0.00;;;4.90;68.30;;;;;;5083283;28;20294;-26
2024/01/12 09:21:21;;;;;;;0.00;0.00;;;4.90;68.10;;;;;;5083018;28;20199;-26
2024/01/12 09:23:53;;;;;;;0.00;0.00;;;4.90;68.00;;;;;;5076863;28;20227;-27
2024/01/12 09:26:20;;;;;;;0.00;0.00;;;4.90;68.00;;;;;;5095893;28;20187;-26
2024/01/12 09:28:48;;;;;;;0.00;0.00;;;4.90;67.90;;;;;;5081973;28;20203;-26
2024/01/12 09:31:17;;;;;;;0.00;0.00;;;4.90;67.90;;;;;;5078358;28;20610;-27
2024/01/12 09:33:47;;;;;;;0.00;0.00;;;4.90;67.90;;;;;;5081442;28;20206;-26
2024/01/12 09:36:17;;;;;;;0.00;0.00;;;4.90;68.00;;;;;;5066131;28;20208;-27
2024/01/12 09:38:44;;;;;;;0.00;0.00;;;4.90;68.00;;;;;;5084359;28;20681;-27
2024/01/12 09:41:15;;;;;;;0.00;0.00;;;4.90;68.10;;;;;;5084416;28;20211;-26
2024/01/12 09:43:47;;;;;;;0.00;0.00;;;4.90;68.10;;;;;;5081185;28;20201;-27
2024/01/12 09:46:19;;;;;;;0.00;0.00;;;4.90;68.20;;;;;;5087640;28;20515;-27
2024/01/12 09:48:48;;;;;;;0.00;0.00;;;5.00;68.30;;;;;;5080494;28;20235;-31
2024/01/12 09:51:18;;;;;;;0.00;0.00;;;5.00;68.30;;;;;;5088349;28;20206;-26
2024/01/12 09:53:48;;;;;;;0.00;0.00;;;5.00;68.30;;;;;;5084877;28;20255;-27
2024/01/12 09:56:15;;;;;;;0.00;0.00;;;5.00;68.30;;;;;;5085705;28;20233;-26
2024/01/12 09:58:46;;;;;;;0.00;0.00;;;5.10;68.30;;;;;;5080783;28;20801;-27
2024/01/12 10:01:15;;;;;;;0.00;0.00;;;5.10;68.30;;;;;;5080508;28;20681;-26
2024/01/12 10:03:46;;;;;;;0.00;0.00;;;5.10;68.40;;;;;;5082822;28;20227;-26
2024/01/12 10:06:14;;;;;;;0.00;0.00;;;5.10;68.30;;;;;;5083642;28;20663;-26
2024/01/12 10:08:44;;;;;;;0.00;0.00;;;5.20;68.40;;;;;;5089161;28;20209;-26
2024/01/12 10:11:13;;;;;;;0.00;0.00;;;5.20;68.40;;;;;;5089570;28;20205;-25
2024/01/12 10:13:43;;;;;;;0.00;0.00;;;5.20;68.30;;;;;;5081964;28;20692;-27
2024/01/12 10:16:11;;;;;;;0.00;0.00;;;5.30;68.40;;;;;;5084899;28;20869;-27
2024/01/12 10:18:38;;;;;;;0.00;0.00;;;5.30;68.40;;;;;;5083254;28;20203;-24
2024/01/12 10:21:10;;;;;;;0.00;0.00;;;5.30;68.30;;;;;;5081515;28;20207;-24
2024/01/12 10:23:38;;;;;;;0.00;0.00;;;5.30;68.30;;;;;;5083547;28;21019;-24
2024/01/12 10:26:06;;;;;;;0.00;0.00;;;5.30;68.40;;;;;;5080117;28;20313;-24
2024/01/12 10:28:33;;;;;;;0.00;0.00;;;5.30;68.40;;;;;;5089552;28;20206;-24
2024/01/12 10:31:08;;;;;;;0.00;0.00;;;5.30;68.50;;;;;;5079644;28;20191;-25
2024/01/12 10:33:38;;;;;;;0.00;0.00;;;5.40;68.50;;;;;;5071566;28;20871;-25
2024/01/12 10:36:12;;;;;;;0.00;0.00;;;5.40;68.50;;;;;;5077870;28;20210;-24
2024/01/12 10:38:45;;;;;;;0.00;0.00;;;5.40;68.50;;;;;;5076221;28;20226;-24
2024/01/12 10:41:18;;;;;;;0.00;0.00;;;5.40;68.50;;;;;;5073510;28;21048;-25
2024/01/12 10:43:57;;;;;;;0.00;0.00;;;5.50;68.60;;;;;;5077708;28;20670;-25
2024/01/12 10:46:35;;;;;;;0.00;0.00;;;5.50;68.70;;;;;;5070922;28;20209;-25
2024/01/12 10:49:17;;;;;;;0.00;0.00;;;5.50;68.70;;;;;;5067995;28;20291;-25
2024/01/12 10:52:09;;;;;;;0.00;0.00;;;5.50;68.70;;;;;;5067434;28;20207;-25
2024/01/12 10:55:15;;;;;;;0.00;0.00;;;5.50;68.70;;;;;;5072725;28;20234;-25
2024/01/12 10:57:45;;;;;;;0.00;0.00;;;5.50;68.70;;;;;;5058090;28;20195;-25
2024/01/12 11:00:14;;;;;;;0.00;0.00;;;5.60;68.70;;;;;;5064234;28;20739;-34
2024/01/12 11:02:47;;;;;;;0.00;0.00;;;5.60;68.70;;;;;;5076004;28;20304;-34
2024/01/12 11:05:16;;;;;;;0.00;0.00;;;5.60;68.70;;;;;;5077912;28;20226;-34
2024/01/12 11:07:44;;;;;;;0.00;0.00;;;5.60;68.70;;;;;;5085983;28;20237;-36
2024/01/12 11:10:15;;;;;;;0.00;0.00;;;5.60;68.70;;;;;;5085559;28;21036;-36
2024/01/12 11:12:47;;;;;;;0.00;0.00;;;5.70;68.80;;;;;;5072686;28;20196;-35
2024/01/12 11:15:17;;;;;;;0.00;0.00;;;5.70;68.80;;;;;;5075303;28;20560;-33
2024/01/12 11:17:45;;;;;;;0.00;0.00;;;5.70;68.80;;;;;;5072599;28;20211;-35
2024/01/12 11:20:18;;;;;;;0.00;0.00;;;5.70;68.80;;;;;;5079476;28;20215;-35
2024/01/12 11:22:49;;;;;;;0.00;0.00;;;5.70;68.80;;;;;;5073196;28;21003;-35
2024/01/12 11:25:19;;;;;;;0.00;0.00;;;5.80;68.80;;;;;;5077442;28;20215;-35
2024/01/12 11:27:49;;;;;;;0.00;0.00;;;5.80;68.80;;;;;;5076018;28;20199;-37
2024/01/12 11:30:21;;;;;;;0.00;0.00;;;5.80;68.80;;;;;;5078108;28;20214;-38
2024/01/12 11:33:00;;;;;;;0.00;0.00;;;5.80;68.80;;;;;;5073125;28;20722;-26
2024/01/12 11:35:29;;;;;;;0.00;0.00;;;5.80;68.90;;;;;;5082822;28;20270;-26
2024/01/12 11:38:04;;;;;;;0.00;0.00;;;5.90;68.90;;;;;;5083684;28;20246;-26
2024/01/12 11:40:34;;;;;;;0.00;0.00;;;5.90;68.90;;;;;;5076448;28;20232;-26
2024/01/12 11:43:04;;;;;;;0.00;0.00;;;5.90;68.90;;;;;;5070146;28;20287;-26
2024/01/12 11:45:39;;;;;;;0.00;0.00;;;5.90;68.90;;;;;;5077999;28;20222;-26
2024/01/12 11:48:06;;;;;;;0.00;0.00;;;5.90;68.90;;;;;;5086482;28;20388;-26
2024/01/12 11:50:34;;;;;;;0.00;0.00;;;6.00;69.00;;;;;;5086412;28;21041;-26
2024/01/12 11:53:01;;;;;;;0.00;0.00;;;6.00;69.00;;;;;;5081707;28;20289;-26
2024/01/12 11:55:30;;;;;;;0.00;0.00;;;6.00;69.00;;;;;;5085310;28;20215;-26
2024/01/12 11:57:59;;;;;;;0.00;0.00;;;6.00;68.90;;;;;;5063776;28;20572;-26
2024/01/12 12:00:30;;;;;;;0.00;0.00;;;6.00;68.90;;;;;;5079963;28;20614;-26
2024/01/12 12:02:57;;;;;;;0.00;0.00;;;6.10;68.90;;;;;;5059888;28;20231;-26
2024/01/12 12:05:25;;;;;;;0.00;0.00;;;6.10;68.90;;;;;;5082962;28;20215;-26
2024/01/12 12:07:58;;;;;;;0.00;0.00;;;6.10;69.00;;;;;;5082915;28;20693;-26
2024/01/12 12:10:26;;;;;;;0.00;0.00;;;6.10;69.00;;;;;;5082896;28;20211;-26
2024/01/12 12:13:12;;;;;;;0.00;0.00;;;6.10;69.00;;;;;;5070786;28;20199;-26
2024/01/12 12:15:39;;;;;;;0.00;0.00;;;6.20;69.00;;;;;;5082702;28;20207;-35
2024/01/12 12:18:06;;;;;;;0.00;0.00;;;6.20;69.10;;;;;;5084101;28;20228;-35
2024/01/12 12:20:34;;;;;;;0.00;0.00;;;6.20;69.10;;;;;;5080232;28;20203;-37
2024/01/12 12:23:07;;;;;;;0.00;0.00;;;6.20;69.10;;;;;;5085465;28;20211;-35
2024/01/12 12:25:34;;;;;;;0.00;0.00;;;6.20;69.10;;;;;;5082897;28;20759;-36
2024/01/12 12:28:05;;;;;;;0.00;0.00;;;6.30;69.10;;;;;;5083038;28;20209;-35
2024/01/12 12:30:32;;;;;;;0.00;0.00;;;6.30;69.20;;;;;;5080515;28;20841;-36
2024/01/12 12:32:59;;;;;;;0.00;0.00;;;6.30;69.20;;;;;;5081916;28;20215;-35
2024/01/12 12:35:29;;;;;;;0.00;0.00;;;6.30;69.10;;;;;;5083390;28;20292;-35
2024/01/12 12:38:03;;;;;;;0.00;0.00;;;6.30;69.10;;;;;;5086587;28;20215;-36
2024/01/12 12:40:34;;;;;;;0.00;0.00;;;6.40;69.30;;;;;;5090427;28;20198;-36
2024/01/12 12:43:04;;;;;;;0.00;0.00;;;6.40;69.30;;;;;;5087307;28;20824;-36
2024/01/12 12:45:31;;;;;;;0.00;0.00;;;6.40;69.20;;;;;;5083419;28;20778;-35
2024/01/12 12:47:59;;;;;;;0.00;0.00;;;6.50;69.30;;;;;;5080831;28;20195;-35
2024/01/12 12:50:30;;;;;;;0.00;0.00;;;6.50;69.30;;;;;;5082974;28;20227;-35
2024/01/12 12:52:57;;;;;;;0.00;0.00;;;6.50;69.30;;;;;;5087957;28;20701;-35
2024/01/12 12:55:25;;;;;;;0.00;0.00;;;6.50;69.30;;;;;;5088585;28;20202;-35
2024/01/12 12:57:55;;;;;;;0.00;0.00;;;6.60;69.40;;;;;;5074458;28;20474;-36
2024/01/12 13:00:22;;;;;;;0.00;0.00;;;6.60;69.30;;;;;;5082456;28;20202;-35
2024/01/12 13:02:49;;;;;;;0.00;0.00;;;6.60;69.30;;;;;;5086311;28;20240;-35
2024/01/12 13:05:21;;;;;;;0.00;0.00;;;6.60;69.30;;;;;;5095009;28;20677;-35
2024/01/12 13:07:49;;;;;;;0.00;0.00;;;6.60;69.30;;;;;;5083016;28;20295;-35
2024/01/12 13:10:17;;;;;;;0.00;0.00;;;6.70;69.30;;;;;;5078170;28;20192;-35